地図

経路データ

SID SEASON NUMBER BASIN SUBBASIN NAME ISO_TIME NATURE LAT LON WMO_WIND WMO_PRES WMO_AGENCY TRACK_TYPE DIST2LAND LANDFALL IFLAG USA_AGENCY USA_ATCF_ID USA_LAT USA_LON USA_RECORD USA_STATUS USA_WIND USA_PRES USA_SSHS USA_R34_NE USA_R34_SE USA_R34_SW USA_R34_NW USA_R50_NE USA_R50_SE USA_R50_SW USA_R50_NW USA_R64_NE USA_R64_SE USA_R64_SW USA_R64_NW USA_POCI USA_ROCI USA_RMW USA_EYE TOKYO_LAT TOKYO_LON TOKYO_GRADE TOKYO_WIND TOKYO_PRES TOKYO_R50_DIR TOKYO_R50_LONG TOKYO_R50_SHORT TOKYO_R30_DIR TOKYO_R30_LONG TOKYO_R30_SHORT TOKYO_LAND CMA_LAT CMA_LON CMA_CAT CMA_WIND CMA_PRES HKO_LAT HKO_LON HKO_CAT HKO_WIND HKO_PRES NEWDELHI_LAT NEWDELHI_LON NEWDELHI_GRADE NEWDELHI_WIND NEWDELHI_PRES NEWDELHI_CI NEWDELHI_DP NEWDELHI_POCI REUNION_LAT REUNION_LON REUNION_TYPE REUNION_WIND REUNION_PRES REUNION_TNUM REUNION_CI REUNION_RMW REUNION_R34_NE REUNION_R34_SE REUNION_R34_SW REUNION_R34_NW REUNION_R50_NE REUNION_R50_SE REUNION_R50_SW REUNION_R50_NW REUNION_R64_NE REUNION_R64_SE REUNION_R64_SW REUNION_R64_NW BOM_LAT BOM_LON BOM_TYPE BOM_WIND BOM_PRES BOM_TNUM BOM_CI BOM_RMW BOM_R34_NE BOM_R34_SE BOM_R34_SW BOM_R34_NW BOM_R50_NE BOM_R50_SE BOM_R50_SW BOM_R50_NW BOM_R64_NE BOM_R64_SE BOM_R64_SW BOM_R64_NW BOM_ROCI BOM_POCI BOM_EYE BOM_POS_METHOD BOM_PRES_METHOD NADI_LAT NADI_LON NADI_CAT NADI_WIND NADI_PRES WELLINGTON_LAT WELLINGTON_LON WELLINGTON_WIND WELLINGTON_PRES DS824_LAT DS824_LON DS824_STAGE DS824_WIND DS824_PRES TD9636_LAT TD9636_LON TD9636_STAGE TD9636_WIND TD9636_PRES TD9635_LAT TD9635_LON TD9635_WIND TD9635_PRES TD9635_ROCI NEUMANN_LAT NEUMANN_LON NEUMANN_CLASS NEUMANN_WIND NEUMANN_PRES MLC_LAT MLC_LON MLC_CLASS MLC_WIND MLC_PRES USA_GUST BOM_GUST BOM_GUST_PER REUNION_GUST REUNION_GUST_PER USA_SEAHGT USA_SEARAD_NE USA_SEARAD_SE USA_SEARAD_SW USA_SEARAD_NW STORM_SPEED STORM_DIR
1937259N10134 1937 45 WP MM NOT_NAMED 1937-09-15 19:00:00 NR 10.1000 134.400 main 898 810 __________O___ -1 10.1000 134.400 7 29 291
1937259N10134 1937 45 WP MM NOT_NAMED 1937-09-15 21:00:00 NR 10.4477 133.498 main 810 783 __________P___ -1 10.4477 133.498 7 28 291
1937259N10134 1937 45 WP MM NOT_NAMED 1937-09-15 22:00:00 NR 10.6000 133.100 main 772 713 __________O___ -1 10.6000 133.100 7 22 291
1937259N10134 1937 45 WP MM NOT_NAMED 1937-09-16 00:00:00 NR 10.8356 132.479 main 713 656 __________P___ -1 10.8356 132.479 7 15 291
1937259N10134 1937 45 WP MM NOT_NAMED 1937-09-16 03:00:00 NR 11.0509 131.914 main 659 632 __________P___ -1 11.0509 131.914 7 9 292
1937259N10134 1937 45 WP MM NOT_NAMED 1937-09-16 06:00:00 NR 11.1680 131.634 main 632 622 __________P___ -1 11.1680 131.634 7 5 295
1937259N10134 1937 45 WP MM NOT_NAMED 1937-09-16 09:00:00 NR 11.2614 131.463 main 623 612 __________P___ -1 11.2614 131.463 7 4 300
1937259N10134 1937 45 WP MM NOT_NAMED 1937-09-16 10:00:00 NR 11.3000 131.400 main 612 591 __________O___ -1 11.3000 131.400 7 7 299
1937259N10134 1937 45 WP MM NOT_NAMED 1937-09-16 12:00:00 NR 11.4330 131.154 main 591 549 __________P___ -1 11.4330 131.154 7 8 300
1937259N10134 1937 45 WP MM NOT_NAMED 1937-09-16 15:00:00 NR 11.6452 130.798 main 549 511 __________P___ -1 11.6452 130.798 7 8 302
1937259N10134 1937 45 WP MM NOT_NAMED 1937-09-16 18:00:00 NR 11.8727 130.436 main 511 474 __________P___ -1 11.8727 130.436 7 9 302
1937259N10134 1937 45 WP MM NOT_NAMED 1937-09-16 21:00:00 NR 12.1156 130.042 main 474 466 __________P___ -1 12.1156 130.042 7 9 302
1937259N10134 1937 45 WP MM NOT_NAMED 1937-09-16 22:00:00 NR 12.2000 129.900 main 466 438 __________O___ -1 12.2000 129.900 7 10 300
1937259N10134 1937 45 WP MM NOT_NAMED 1937-09-17 00:00:00 NR 12.3772 129.587 main 442 393 __________P___ -1 12.3772 129.587 7 11 300
1937259N10134 1937 45 WP MM NOT_NAMED 1937-09-17 03:00:00 NR 12.6556 129.079 main 395 335 __________P___ -1 12.6556 129.079 7 12 299
1937259N10134 1937 45 WP MM NOT_NAMED 1937-09-17 06:00:00 NR 12.9382 128.540 main 335 293 __________P___ -1 12.9382 128.540 7 12 298
1937259N10134 1937 45 WP MM NOT_NAMED 1937-09-17 09:00:00 NR 13.2125 127.986 main 293 278 __________P___ -1 13.2125 127.986 7 12 297
1937259N10134 1937 45 WP MM NOT_NAMED 1937-09-17 10:00:00 NR 13.3000 127.800 main 278 255 __________O___ -1 13.3000 127.800 7 11 297
1937259N10134 1937 45 WP MM NOT_NAMED 1937-09-17 12:00:00 NR 13.4604 127.480 main 261 233 __________P___ -1 13.4604 127.480 7 11 296
1937259N10134 1937 45 WP MM NOT_NAMED 1937-09-17 15:00:00 NR 13.6887 126.996 main 233 210 __________P___ -1 13.6887 126.996 7 11 294
1937259N10134 1937 45 WP MM NOT_NAMED 1937-09-17 18:00:00 NR 13.9086 126.464 main 210 152 __________P___ -1 13.9086 126.464 7 12 291
1937259N10134 1937 45 WP MM NOT_NAMED 1937-09-17 21:00:00 NR 14.1266 125.838 main 152 133 __________P___ -1 14.1266 125.838 7 13 289
1937259N10134 1937 45 WP MM NOT_NAMED 1937-09-17 22:00:00 NR 14.2000 125.600 main 133 78 __________O___ -1 14.2000 125.600 3 16 285
1937259N10134 1937 45 WP MM NOT_NAMED 1937-09-18 00:00:00 NR 14.3381 125.032 main 78 55 __________P___ -1 14.3381 125.032 3 18 283
1937259N10134 1937 45 WP MM NOT_NAMED 1937-09-18 03:00:00 NR 14.5445 124.077 main 55 59 __________P___ -1 14.5445 124.077 3 19 283
1937259N10134 1937 45 WP MM NOT_NAMED 1937-09-18 06:00:00 NR 14.7628 123.074 main 70 54 __________P___ -1 14.7628 123.074 3 20 284
1937259N10134 1937 45 WP MM NOT_NAMED 1937-09-18 09:00:00 NR 15.0089 122.103 main 54 34 __________P___ -1 15.0089 122.103 3 19 285
1937259N10134 1937 45 WP MM NOT_NAMED 1937-09-18 10:00:00 NR 15.1000 121.800 main 34 0 __________O___ -1 15.1000 121.800 4 17 290
1937259N10134 1937 45 WP MM NOT_NAMED 1937-09-18 12:00:00 NR 15.3088 121.268 main 0 0 __________P___ -1 15.3088 121.268 4 16 294
1937259N10134 1937 45 WP MM NOT_NAMED 1937-09-18 15:00:00 NR 15.6546 120.534 main 0 0 __________P___ -1 15.6546 120.534 4 15 298
1937259N10134 1937 45 WP MM NOT_NAMED 1937-09-18 18:00:00 NR 16.0203 119.855 main 0 0 __________P___ -1 16.0203 119.855 4 15 300
1937259N10134 1937 45 WP MM NOT_NAMED 1937-09-18 21:00:00 NR 16.3834 119.211 main 65 65 __________P___ -1 16.3834 119.211 4 14 300
1937259N10134 1937 45 WP MM NOT_NAMED 1937-09-18 22:00:00 NR 16.5000 119.000 main 88 88 __________O___ -1 16.5000 119.000 4 14 299
1937259N10134 1937 45 WP MM NOT_NAMED 1937-09-19 00:00:00 NR 16.7263 118.574 main 135 145 __________P___ -1 16.7263 118.574 4 14 299
1937259N10134 1937 45 WP MM NOT_NAMED 1937-09-19 03:00:00 NR 17.0540 117.954 main 211 221 __________P___ -1 17.0540 117.954 4 13 298
1937259N10134 1937 45 WP MM NOT_NAMED 1937-09-19 06:00:00 NR 17.3568 117.340 main 293 293 __________P___ -1 17.3568 117.340 4 13 296
1937259N10134 1937 45 WP MM NOT_NAMED 1937-09-19 09:00:00 NR 17.6221 116.715 main 360 360 __________P___ -1 17.6221 116.715 4 13 293
1937259N10134 1937 45 WP MM NOT_NAMED 1937-09-19 10:00:00 NR 17.7000 116.500 main 384 384 __________O___ -1 17.7000 116.500 4 14 289
1937259N10134 1937 45 WP MM NOT_NAMED 1937-09-19 12:00:00 NR 17.8475 116.035 main 437 441 __________P___ -1 17.8475 116.035 4 14 286
1937259N10134 1937 45 WP MM NOT_NAMED 1937-09-19 15:00:00 NR 18.0312 115.317 main 486 409 __________P___ -1 18.0312 115.317 4 14 283
1937259N10134 1937 45 WP MM NOT_NAMED 1937-09-19 18:00:00 NR 18.1724 114.602 main 409 337 __________P___ -1 18.1724 114.602 4 14 280
1937259N10134 1937 45 WP MM NOT_NAMED 1937-09-19 21:00:00 NR 18.2742 113.917 main 337 319 __________P___ -1 18.2742 113.917 4 13 278
1937259N10134 1937 45 WP MM NOT_NAMED 1937-09-19 22:00:00 NR 18.3000 113.700 main 319 282 __________O___ -1 18.3000 113.700 4 12 276
1937259N10134 1937 45 WP MM NOT_NAMED 1937-09-20 00:00:00 NR 18.3364 113.301 main 282 223 __________P___ -1 18.3364 113.301 4 11 274
1937259N10134 1937 45 WP MM NOT_NAMED 1937-09-20 03:00:00 NR 18.3601 112.741 main 223 181 __________P___ -1 18.3601 112.741 4 10 272
1937259N10134 1937 45 WP MM NOT_NAMED 1937-09-20 06:00:00 NR 18.3688 112.208 main 181 133 __________P___ -1 18.3688 112.208 4 10 272
1937259N10134 1937 45 WP MM NOT_NAMED 1937-09-20 09:00:00 NR 18.3874 111.679 main 133 114 __________P___ -1 18.3874 111.679 4 10 273
1937259N10134 1937 45 WP MM NOT_NAMED 1937-09-20 10:00:00 NR 18.4000 111.500 main 114 77 __________O___ -1 18.4000 111.500 4 11 276
1937259N10134 1937 45 WP MM NOT_NAMED 1937-09-20 12:00:00 NR 18.4496 111.102 main 77 24 __________P___ -1 18.4496 111.102 4 12 279
1937259N10134 1937 45 WP MM NOT_NAMED 1937-09-20 15:00:00 NR 18.5431 110.497 main 24 0 __________P___ -1 18.5431 110.497 4 11 280
1937259N10134 1937 45 WP MM NOT_NAMED 1937-09-20 18:00:00 NR 18.6507 109.909 main 0 0 __________P___ -1 18.6507 109.909 4 11 282
1937259N10134 1937 45 WP MM NOT_NAMED 1937-09-20 21:00:00 NR 18.7631 109.366 main 0 0 __________P___ -1 18.7631 109.366 4 10 283
1937259N10134 1937 45 WP MM NOT_NAMED 1937-09-20 22:00:00 NR 18.8000 109.200 main 0 0 __________O___ -1 18.8000 109.200 4 9 283
1937259N10134 1937 45 WP MM NOT_NAMED 1937-09-21 00:00:00 NR 18.8633 108.909 main 0 0 __________P___ -1 18.8633 108.909 4 8 284
1937259N10134 1937 45 WP MM NOT_NAMED 1937-09-21 03:00:00 NR 18.9587 108.524 main 21 21 __________P___ -1 18.9587 108.524 4 7 286
1937259N10134 1937 45 WP MM NOT_NAMED 1937-09-21 06:00:00 NR 19.0576 108.172 main 47 47 __________P___ -1 19.0576 108.172 4 7 287
1937259N10134 1937 45 WP MM NOT_NAMED 1937-09-21 09:00:00 NR 19.1630 107.822 main 84 84 __________P___ -1 19.1630 107.822 4 7 288
1937259N10134 1937 45 WP MM NOT_NAMED 1937-09-21 10:00:00 NR 19.2000 107.700 main 95 95 __________O___ -1 19.2000 107.700 4 7 288
1937259N10134 1937 45 WP MM NOT_NAMED 1937-09-21 12:00:00 NR 19.2772 107.444 main 125 103 __________P___ -1 19.2772 107.444 4 8 288
1937259N10134 1937 45 WP MM NOT_NAMED 1937-09-21 15:00:00 NR 19.3994 107.033 main 103 69 __________P___ -1 19.3994 107.033 4 8 287
1937259N10134 1937 45 WP MM NOT_NAMED 1937-09-21 18:00:00 NR 19.5268 106.599 main 69 33 __________P___ -1 19.5268 106.599 4 9 287
1937259N10134 1937 45 WP MM NOT_NAMED 1937-09-21 21:00:00 NR 19.6567 106.151 main 33 15 __________P___ -1 19.6567 106.151 4 9 287
1937259N10134 1937 45 WP MM NOT_NAMED 1937-09-21 22:00:00 NR 19.7000 106.000 main 15 __________O___ -1 19.7000 106.000 4 9 287

デジタル台風データ・検索

IBTrACS Databaseについて

本データベースは、米国NOAAが公開する1842年以降の世界の熱帯低気圧のベストトラックデータアーカイブInternational Best Track Archive for Climate Stewardship (IBTrACS)を、ウェブで閲覧しやすい形式に変換したものです。

最終更新日:2021-11-26